createdAt,value
2023-04-15T00:00:47.465Z,5.40
2023-04-15T00:01:47.555Z,5.40
2023-04-15T00:02:47.708Z,5.38
2023-04-15T00:03:47.842Z,5.37
2023-04-15T00:04:47.523Z,5.36
2023-04-15T00:05:47.403Z,5.34
2023-04-15T00:06:47.377Z,5.31
2023-04-15T00:07:47.366Z,5.29
2023-04-15T00:08:47.363Z,5.28
2023-04-15T00:09:47.340Z,5.28
2023-04-15T00:10:47.319Z,5.25
2023-04-15T00:11:47.312Z,5.22
2023-04-15T00:12:47.299Z,5.19
2023-04-15T00:13:47.301Z,5.15
2023-04-15T00:14:47.269Z,5.13
2023-04-15T00:15:47.266Z,5.08
2023-04-15T00:16:47.279Z,5.07
2023-04-15T00:17:47.249Z,5.04
2023-04-15T00:18:47.242Z,5.01
2023-04-15T00:19:47.214Z,5.01
2023-04-15T00:20:47.190Z,5.01
2023-04-15T00:21:47.219Z,5.02
2023-04-15T00:22:47.176Z,5.00
2023-04-15T00:23:47.170Z,4.97
2023-04-15T00:24:47.127Z,4.95
2023-04-15T00:25:47.128Z,4.92
2023-04-15T00:26:47.112Z,4.90
2023-04-15T00:27:47.097Z,4.89
2023-04-15T00:28:47.092Z,4.84
2023-04-15T00:29:47.071Z,4.78
2023-04-15T00:30:47.086Z,4.75
2023-04-15T00:31:47.056Z,4.70
2023-04-15T00:32:47.096Z,4.64
2023-04-15T00:33:47.052Z,4.60
2023-04-15T00:34:47.014Z,4.53
2023-04-15T00:35:47.000Z,4.48
2023-04-15T00:36:46.987Z,4.46
2023-04-15T00:37:46.978Z,4.46
2023-04-15T00:38:46.970Z,4.49
2023-04-15T00:39:46.946Z,4.50
2023-04-15T00:40:46.930Z,4.56
2023-04-15T00:41:46.925Z,4.57
2023-04-15T00:42:46.904Z,4.60
2023-04-15T00:43:46.893Z,4.58
2023-04-15T00:44:46.870Z,4.57
2023-04-15T00:45:46.894Z,4.58
2023-04-15T00:46:46.849Z,4.58
2023-04-15T00:47:47.017Z,4.61
2023-04-15T00:48:46.834Z,4.61
2023-04-15T00:49:46.813Z,4.58
2023-04-15T00:50:46.792Z,4.53
2023-04-15T00:51:46.779Z,4.50
2023-04-15T00:52:46.758Z,4.48
2023-04-15T00:53:46.771Z,4.45
2023-04-15T00:54:46.742Z,4.46
2023-04-15T00:55:46.731Z,4.45
2023-04-15T00:56:46.747Z,4.46
2023-04-15T00:57:46.700Z,4.43
2023-04-15T00:58:46.696Z,4.42
2023-04-15T00:59:46.682Z,4.39
2023-04-15T01:00:46.653Z,4.34
2023-04-15T01:01:46.768Z,4.32
2023-04-15T01:02:46.673Z,4.32
2023-04-15T01:03:46.939Z,4.31
2023-04-15T01:04:46.599Z,4.28
2023-04-15T01:05:46.593Z,4.28
2023-04-15T01:06:46.583Z,4.28
2023-04-15T01:07:46.570Z,4.34
2023-04-15T01:08:46.580Z,4.36
2023-04-15T01:09:46.544Z,4.38
2023-04-15T01:10:46.521Z,4.39
2023-04-15T01:11:46.511Z,4.39
2023-04-15T01:12:46.500Z,4.40
2023-04-15T01:13:46.508Z,4.39
2023-04-15T01:14:46.469Z,4.39
2023-04-15T01:15:46.478Z,4.36
2023-04-15T01:16:46.446Z,4.30
2023-04-15T01:17:46.458Z,4.27
2023-04-15T01:18:46.436Z,4.22
2023-04-15T01:19:46.413Z,4.18
2023-04-15T01:20:46.387Z,4.20
2023-04-15T01:21:46.381Z,4.20
2023-04-15T01:22:46.373Z,4.18
2023-04-15T01:23:46.361Z,4.21
2023-04-15T01:24:46.331Z,4.20
2023-04-15T01:25:46.319Z,4.18
2023-04-15T01:26:46.307Z,4.20
2023-04-15T01:27:46.297Z,4.21
2023-04-15T01:28:46.305Z,4.21
2023-04-15T01:29:46.268Z,4.18
2023-04-15T01:30:46.271Z,4.14
2023-04-15T01:31:46.287Z,4.12
2023-04-15T01:32:46.282Z,4.09
2023-04-15T01:33:46.205Z,4.06
2023-04-15T01:34:46.218Z,4.02
2023-04-15T01:35:46.202Z,4.02
2023-04-15T01:36:46.187Z,4.02
2023-04-15T01:37:46.174Z,4.02
2023-04-15T01:38:46.146Z,4.02
2023-04-15T01:39:46.157Z,4.02
2023-04-15T01:40:46.126Z,4.03
2023-04-15T01:41:46.111Z,4.06
2023-04-15T01:42:46.099Z,4.06
2023-04-15T01:43:46.110Z,4.04
2023-04-15T01:44:46.093Z,4.06
2023-04-15T01:45:46.063Z,4.06
2023-04-15T01:46:46.180Z,4.04
2023-04-15T01:47:46.045Z,4.06
2023-04-15T01:48:46.034Z,4.04
2023-04-15T01:49:46.012Z,4.03
2023-04-15T01:50:45.986Z,4.04
2023-04-15T01:51:45.963Z,4.04
2023-04-15T01:52:45.954Z,4.02
2023-04-15T01:53:45.937Z,4.00
2023-04-15T01:54:45.943Z,4.00
2023-04-15T01:55:45.912Z,4.02
2023-04-15T01:56:45.913Z,3.99
2023-04-15T01:57:45.882Z,3.99
2023-04-15T01:58:45.868Z,3.96
2023-04-15T01:59:45.873Z,3.95
2023-04-15T02:00:45.888Z,3.92
2023-04-15T02:01:45.880Z,3.92
2023-04-15T02:02:45.957Z,3.92
2023-04-15T02:03:45.846Z,3.92
2023-04-15T02:04:45.824Z,3.96
2023-04-15T02:05:45.783Z,3.96
2023-04-15T02:06:45.779Z,3.95
2023-04-15T02:07:45.745Z,3.95
2023-04-15T02:08:45.750Z,3.94
2023-04-15T02:09:45.725Z,3.91
2023-04-15T02:10:45.743Z,3.88
2023-04-15T02:11:45.703Z,3.85
2023-04-15T02:12:45.699Z,3.82
2023-04-15T02:13:45.677Z,3.82
2023-04-15T02:14:45.673Z,3.82
2023-04-15T02:15:45.674Z,3.82
2023-04-15T02:16:45.698Z,3.82
2023-04-15T02:17:45.758Z,3.85
2023-04-15T02:18:45.625Z,3.85
2023-04-15T02:19:45.597Z,3.81
2023-04-15T02:20:45.620Z,3.81
2023-04-15T02:21:45.572Z,3.76
2023-04-15T02:22:45.565Z,3.71
2023-04-15T02:23:45.540Z,3.71
2023-04-15T02:24:45.540Z,3.71
2023-04-15T02:25:53.792Z,3.71
2023-04-15T02:26:46.507Z,3.68
2023-04-15T02:27:45.502Z,3.63
2023-04-15T02:28:45.479Z,3.58
2023-04-15T02:29:45.469Z,3.56
2023-04-15T02:30:45.484Z,3.55
2023-04-15T02:31:45.490Z,3.55
2023-04-15T02:32:45.634Z,3.52
2023-04-15T02:33:45.425Z,3.55
2023-04-15T02:34:45.398Z,3.56
2023-04-15T02:35:45.413Z,3.52
2023-04-15T02:36:45.362Z,3.53
2023-04-15T02:37:45.355Z,3.50
2023-04-15T02:38:45.367Z,3.53
2023-04-15T02:39:45.351Z,3.52
2023-04-15T02:40:45.349Z,3.55
2023-04-15T02:41:45.306Z,3.50
2023-04-15T02:42:45.298Z,3.48
2023-04-15T02:43:45.296Z,3.45
2023-04-15T02:44:45.270Z,3.45
2023-04-15T02:45:45.328Z,3.43
2023-04-15T02:46:45.240Z,3.45
2023-04-15T02:47:45.233Z,3.43
2023-04-15T02:48:45.220Z,3.43
2023-04-15T02:49:45.193Z,3.40
2023-04-15T02:50:45.220Z,3.37
2023-04-15T02:51:45.157Z,3.31
2023-04-15T02:52:45.169Z,3.33
2023-04-15T02:53:45.148Z,3.33
2023-04-15T02:54:45.141Z,3.31
2023-04-15T02:55:45.138Z,3.31
2023-04-15T02:56:45.113Z,3.31
2023-04-15T02:57:45.093Z,3.34
2023-04-15T02:58:45.142Z,3.34
2023-04-15T02:59:45.060Z,3.36
2023-04-15T03:00:45.063Z,3.40
2023-04-15T03:01:45.136Z,3.36
2023-04-15T03:02:45.132Z,3.37
2023-04-15T03:03:45.201Z,3.36
2023-04-15T03:04:44.993Z,3.36
2023-04-15T03:05:45.003Z,3.31
2023-04-15T03:06:44.976Z,3.27
2023-04-15T03:07:44.971Z,3.26
2023-04-15T03:08:44.951Z,3.29
2023-04-15T03:09:44.942Z,3.31
2023-04-15T03:10:44.939Z,3.34
2023-04-15T03:11:44.904Z,3.33
2023-04-15T03:12:44.891Z,3.30
2023-04-15T03:13:44.890Z,3.29
2023-04-15T03:14:44.889Z,3.26
2023-04-15T03:15:44.953Z,3.21
2023-04-15T03:16:44.855Z,3.22
2023-04-15T03:17:44.833Z,3.21
2023-04-15T03:18:44.813Z,3.24
2023-04-15T03:19:44.806Z,3.27
2023-04-15T03:20:44.859Z,3.30
2023-04-15T03:21:44.777Z,3.31
2023-04-15T03:22:44.771Z,3.27
2023-04-15T03:23:44.754Z,3.27
2023-04-15T03:24:44.762Z,3.27
2023-04-15T03:25:44.749Z,3.26
2023-04-15T03:26:44.701Z,3.24
2023-04-15T03:27:44.695Z,3.22
2023-04-15T03:28:44.706Z,3.21
2023-04-15T03:29:44.671Z,3.18
2023-04-15T03:30:44.675Z,3.13
2023-04-15T03:31:44.650Z,3.11
2023-04-15T03:32:44.644Z,3.09
2023-04-15T03:33:51.792Z,3.09
2023-04-15T03:34:44.608Z,3.09
2023-04-15T03:35:44.616Z,3.06
2023-04-15T03:36:44.596Z,3.06
2023-04-15T03:37:44.571Z,3.06
2023-04-15T03:38:44.532Z,3.08
2023-04-15T03:39:44.539Z,3.09
2023-04-15T03:40:44.563Z,3.11
2023-04-15T03:41:44.530Z,3.12
2023-04-15T03:42:44.599Z,3.13
2023-04-15T03:43:44.490Z,3.15
2023-04-15T03:44:44.475Z,3.15
2023-04-15T03:45:44.484Z,3.15
2023-04-15T03:46:44.629Z,3.13
2023-04-15T03:47:44.447Z,3.09
2023-04-15T03:48:44.476Z,3.08
2023-04-15T03:49:44.411Z,3.06
2023-04-15T03:50:44.424Z,3.06
2023-04-15T03:51:44.389Z,3.06
2023-04-15T03:52:44.366Z,3.06
2023-04-15T03:53:44.358Z,3.08
2023-04-15T03:54:44.364Z,3.05
2023-04-15T03:55:44.351Z,3.08
2023-04-15T03:56:44.332Z,3.06
2023-04-15T03:57:44.327Z,3.08
2023-04-15T03:58:44.292Z,3.06
2023-04-15T03:59:44.282Z,3.06
2023-04-15T04:00:44.278Z,3.05
2023-04-15T04:01:44.301Z,3.05
2023-04-15T04:02:44.373Z,3.01
2023-04-15T04:03:44.365Z,3.00
2023-04-15T04:04:44.279Z,2.98
2023-04-15T04:05:44.220Z,2.98
2023-04-15T04:06:44.204Z,3.00
2023-04-15T04:07:44.198Z,3.01
2023-04-15T04:08:44.139Z,3.00
2023-04-15T04:09:45.712Z,3.00
2023-04-15T04:10:44.133Z,3.00
2023-04-15T04:11:44.111Z,3.01
2023-04-15T04:12:44.097Z,2.98
2023-04-15T04:13:44.080Z,2.97
2023-04-15T04:14:44.252Z,2.97
2023-04-15T04:15:44.109Z,2.97
2023-04-15T04:16:44.222Z,3.03
2023-04-15T04:17:44.057Z,3.01
2023-04-15T04:18:44.053Z,3.03
2023-04-15T04:19:44.007Z,3.05
2023-04-15T04:20:44.025Z,3.06
2023-04-15T04:21:43.985Z,3.05
2023-04-15T04:22:43.984Z,3.05
2023-04-15T04:23:43.956Z,3.05
2023-04-15T04:24:44.039Z,3.03
2023-04-15T04:25:43.946Z,3.03
2023-04-15T04:26:43.915Z,3.00
2023-04-15T04:27:43.909Z,2.98
2023-04-15T04:28:43.896Z,2.95
2023-04-15T04:29:43.922Z,2.93
2023-04-15T04:30:43.888Z,2.93
2023-04-15T04:31:43.875Z,2.94
2023-04-15T04:32:43.867Z,2.95
2023-04-15T04:33:43.874Z,2.95
2023-04-15T04:34:43.810Z,2.97
2023-04-15T04:35:43.821Z,3.00
2023-04-15T04:36:43.785Z,3.01
2023-04-15T04:37:43.774Z,3.01
2023-04-15T04:38:43.769Z,2.98
2023-04-15T04:39:43.748Z,2.97
2023-04-15T04:40:43.762Z,2.94
2023-04-15T04:41:43.714Z,2.94
2023-04-15T04:42:43.701Z,2.88
2023-04-15T04:43:43.676Z,2.90
2023-04-15T04:44:43.671Z,2.87
2023-04-15T04:45:43.703Z,2.87
2023-04-15T04:46:43.659Z,2.87
2023-04-15T04:47:43.729Z,2.87
2023-04-15T04:48:46.541Z,2.90
2023-04-15T04:49:43.810Z,2.91
2023-04-15T04:50:43.599Z,2.94
2023-04-15T04:51:43.608Z,2.93
2023-04-15T04:52:43.583Z,2.93
2023-04-15T04:53:43.825Z,2.94
2023-04-15T04:54:44.459Z,2.93
2023-04-15T04:55:43.525Z,2.91
2023-04-15T04:56:43.572Z,2.90
2023-04-15T04:57:43.552Z,2.91
2023-04-15T04:58:43.494Z,2.91
2023-04-15T04:59:43.495Z,2.91
2023-04-15T05:00:43.515Z,2.91
2023-04-15T05:01:43.495Z,2.90
2023-04-15T05:02:43.539Z,2.88
2023-04-15T05:03:43.583Z,2.85
2023-04-15T05:04:43.415Z,2.87
2023-04-15T05:05:43.400Z,2.82
2023-04-15T05:06:43.396Z,2.83
2023-04-15T05:07:43.408Z,2.79
2023-04-15T05:08:43.342Z,2.79
2023-04-15T05:09:43.354Z,2.83
2023-04-15T05:10:43.335Z,2.85
2023-04-15T05:11:43.332Z,2.85
2023-04-15T05:12:43.340Z,2.85
2023-04-15T05:13:43.297Z,2.90
2023-04-15T05:14:43.340Z,2.94
2023-04-15T05:15:43.379Z,2.97
2023-04-15T05:16:43.272Z,2.97
2023-04-15T05:17:43.370Z,2.97
2023-04-15T05:18:43.272Z,2.98
2023-04-15T05:19:43.205Z,3.01
2023-04-15T05:20:43.196Z,3.05
2023-04-15T05:21:43.269Z,3.06
2023-04-15T05:22:43.161Z,3.06
2023-04-15T05:23:43.152Z,3.05
2023-04-15T05:24:43.161Z,3.08
2023-04-15T05:25:43.126Z,3.06
2023-04-15T05:26:43.140Z,3.06
2023-04-15T05:27:43.166Z,3.05
2023-04-15T05:28:43.121Z,3.05
2023-04-15T05:29:43.077Z,3.06
2023-04-15T05:30:43.073Z,3.08
2023-04-15T05:31:43.159Z,3.08
2023-04-15T05:32:43.086Z,3.09
2023-04-15T05:33:43.026Z,3.11
2023-04-15T05:34:42.994Z,3.08
2023-04-15T05:35:42.999Z,3.12
2023-04-15T05:36:43.011Z,3.11
2023-04-15T05:37:42.985Z,3.12
2023-04-15T05:38:42.949Z,3.12
2023-04-15T05:39:42.948Z,3.12
2023-04-15T05:40:42.927Z,3.13
2023-04-15T05:41:42.952Z,3.15
2023-04-15T05:42:42.907Z,3.18
2023-04-15T05:43:42.903Z,3.21
2023-04-15T05:44:42.874Z,3.22
2023-04-15T05:45:42.865Z,3.27
2023-04-15T05:46:42.967Z,3.31
2023-04-15T05:47:42.965Z,3.36
2023-04-15T05:48:42.835Z,3.37
2023-04-15T05:49:42.833Z,3.41
2023-04-15T05:50:42.800Z,3.46
2023-04-15T05:51:42.830Z,3.49
2023-04-15T05:52:42.771Z,3.53
2023-04-15T05:53:42.750Z,3.58
2023-04-15T05:54:42.746Z,3.61
2023-04-15T05:55:42.735Z,3.64
2023-04-15T05:56:42.743Z,3.64
2023-04-15T05:57:42.712Z,3.64
2023-04-15T05:58:42.683Z,3.67
2023-04-15T05:59:42.719Z,3.67
2023-04-15T06:00:42.666Z,3.66
2023-04-15T06:01:42.676Z,3.64
2023-04-15T06:02:42.802Z,3.64
2023-04-15T06:03:42.819Z,3.63
2023-04-15T06:04:42.757Z,3.63
2023-04-15T06:05:42.604Z,3.61
2023-04-15T06:06:42.634Z,3.61
2023-04-15T06:07:42.608Z,3.64
2023-04-15T06:08:42.562Z,3.66
2023-04-15T06:09:42.588Z,3.68
2023-04-15T06:10:42.661Z,3.70
2023-04-15T06:11:42.513Z,3.71
2023-04-15T06:12:42.514Z,3.71
2023-04-15T06:13:42.520Z,3.74
2023-04-15T06:14:42.480Z,3.77
2023-04-15T06:15:42.557Z,3.77
2023-04-15T06:16:42.544Z,3.82
2023-04-15T06:17:42.480Z,3.85
2023-04-15T06:18:42.424Z,3.91
2023-04-15T06:19:42.429Z,3.94
2023-04-15T06:20:42.397Z,3.96
2023-04-15T06:21:42.466Z,3.96
2023-04-15T06:22:42.381Z,3.99
2023-04-15T06:23:42.373Z,4.00
2023-04-15T06:24:42.371Z,4.03
2023-04-15T06:25:42.373Z,4.06
2023-04-15T06:26:42.318Z,4.06
2023-04-15T06:27:42.345Z,4.09
2023-04-15T06:28:42.284Z,4.07
2023-04-15T06:29:42.273Z,4.04
2023-04-15T06:30:42.265Z,4.04
2023-04-15T06:31:42.313Z,4.04
2023-04-15T06:32:42.283Z,4.06
2023-04-15T06:33:42.229Z,4.06
2023-04-15T06:34:42.278Z,4.10
2023-04-15T06:35:42.218Z,4.10
2023-04-15T06:36:42.242Z,4.12
2023-04-15T06:37:42.182Z,4.12
2023-04-15T06:38:42.204Z,4.13
2023-04-15T06:39:42.149Z,4.16
2023-04-15T06:40:42.126Z,4.20
2023-04-15T06:41:42.160Z,4.25
2023-04-15T06:42:42.114Z,4.25
2023-04-15T06:43:42.099Z,4.27
2023-04-15T06:44:42.143Z,4.30
2023-04-15T06:45:42.109Z,4.34
2023-04-15T06:46:42.074Z,4.34
2023-04-15T06:47:42.104Z,4.34
2023-04-15T06:48:42.026Z,4.36
2023-04-15T06:49:42.097Z,4.36
2023-04-15T06:50:42.016Z,4.40
2023-04-15T06:51:41.980Z,4.48
2023-04-15T06:52:41.978Z,4.49
2023-04-15T06:53:41.961Z,4.53
2023-04-15T06:54:41.955Z,5.08
2023-04-15T06:55:42.098Z,5.55
2023-04-15T06:56:41.917Z,6.12
2023-04-15T06:57:41.923Z,6.59
2023-04-15T06:58:41.906Z,6.65
2023-04-15T06:59:41.873Z,6.83
2023-04-15T07:00:41.863Z,7.21
2023-04-15T07:01:41.865Z,7.14
2023-04-15T07:02:41.965Z,6.95
2023-04-15T07:03:41.839Z,6.70
2023-04-15T07:04:41.799Z,6.44
2023-04-15T07:05:41.800Z,6.25
2023-04-15T07:06:41.820Z,6.13
2023-04-15T07:07:41.765Z,6.06
2023-04-15T07:08:41.769Z,6.01
2023-04-15T07:09:41.752Z,5.98
2023-04-15T07:10:41.729Z,5.97
2023-04-15T07:11:41.735Z,5.95
2023-04-15T07:12:41.713Z,5.92
2023-04-15T07:13:41.679Z,5.92
2023-04-15T07:14:41.677Z,5.91
2023-04-15T07:15:41.682Z,5.94
2023-04-15T07:16:41.708Z,5.94
2023-04-15T07:17:41.684Z,5.95
2023-04-15T07:18:41.625Z,5.98
2023-04-15T07:19:41.630Z,6.02
2023-04-15T07:20:41.628Z,6.07
2023-04-15T07:21:42.019Z,6.09
2023-04-15T07:22:41.569Z,6.07
2023-04-15T07:23:41.578Z,6.10
2023-04-15T07:24:41.555Z,6.13
2023-04-15T07:25:41.541Z,6.16
2023-04-15T07:26:41.565Z,6.15
2023-04-15T07:27:41.504Z,6.16
2023-04-15T07:28:41.487Z,6.16
2023-04-15T07:29:41.495Z,6.16
2023-04-15T07:30:41.642Z,6.15
2023-04-15T07:31:41.482Z,6.17
2023-04-15T07:32:41.474Z,6.22
2023-04-15T07:33:41.427Z,6.22
2023-04-15T07:34:41.414Z,6.25
2023-04-15T07:35:41.397Z,6.22
2023-04-15T07:36:41.407Z,6.19
2023-04-15T07:37:41.371Z,6.25
2023-04-15T07:38:41.373Z,6.26
2023-04-15T07:39:41.343Z,6.26
2023-04-15T07:40:41.366Z,6.25
2023-04-15T07:41:41.315Z,6.28
2023-04-15T07:42:41.513Z,6.29
2023-04-15T07:43:41.290Z,6.29
2023-04-15T07:44:41.282Z,6.32
2023-04-15T07:45:41.362Z,6.32
2023-04-15T07:46:41.322Z,6.34
2023-04-15T07:47:41.310Z,6.35
2023-04-15T07:48:41.232Z,6.39
2023-04-15T07:49:41.284Z,6.43
2023-04-15T07:50:41.216Z,6.47
2023-04-15T07:51:41.209Z,6.50
2023-04-15T07:52:41.269Z,6.53
2023-04-15T07:53:41.161Z,6.54
2023-04-15T07:54:41.176Z,6.56
2023-04-15T07:55:41.142Z,6.59
2023-04-15T07:56:41.144Z,6.65
2023-04-15T07:57:41.102Z,6.89
2023-04-15T07:58:41.093Z,7.00
2023-04-15T07:59:41.087Z,7.07
2023-04-15T08:00:41.074Z,7.11
2023-04-15T08:01:41.078Z,7.15
2023-04-15T08:02:41.325Z,7.19
2023-04-15T08:03:41.169Z,7.25
2023-04-15T08:04:41.337Z,7.28
2023-04-15T08:05:41.018Z,7.32
2023-04-15T08:06:41.027Z,7.33
2023-04-15T08:07:40.982Z,7.39
2023-04-15T08:08:40.987Z,7.46
2023-04-15T08:09:40.960Z,7.47
2023-04-15T08:10:40.957Z,7.46
2023-04-15T08:11:40.941Z,7.43
2023-04-15T08:12:40.915Z,7.41
2023-04-15T08:13:40.888Z,7.37
2023-04-15T08:14:40.897Z,7.36
2023-04-15T08:15:40.924Z,7.37
2023-04-15T08:16:40.947Z,7.39
2023-04-15T08:17:40.898Z,7.43
2023-04-15T08:18:40.856Z,7.44
2023-04-15T08:19:40.829Z,7.50
2023-04-15T08:20:40.847Z,7.56
2023-04-15T08:21:40.868Z,7.62
2023-04-15T08:22:40.790Z,7.66
2023-04-15T08:23:40.767Z,7.72
2023-04-15T08:24:40.781Z,7.77
2023-04-15T08:25:40.739Z,7.78
2023-04-15T08:26:40.754Z,7.84
2023-04-15T08:27:40.725Z,7.90
2023-04-15T08:28:40.706Z,7.95
2023-04-15T08:29:40.716Z,7.99
2023-04-15T08:30:40.695Z,8.03
2023-04-15T08:31:40.723Z,8.08
2023-04-15T08:32:40.677Z,8.13
2023-04-15T08:33:40.636Z,8.16
2023-04-15T08:34:40.642Z,8.18
2023-04-15T08:35:40.624Z,8.23
2023-04-15T08:36:40.646Z,8.26
2023-04-15T08:37:40.607Z,8.28
2023-04-15T08:38:40.571Z,8.34
2023-04-15T08:39:40.589Z,8.38
2023-04-15T08:40:40.594Z,8.42
2023-04-15T08:41:40.721Z,8.49
2023-04-15T08:42:41.871Z,8.52
2023-04-15T08:43:40.500Z,8.59
2023-04-15T08:44:40.493Z,8.63
2023-04-15T08:45:40.522Z,8.66
2023-04-15T08:46:40.570Z,8.69
2023-04-15T08:47:40.795Z,8.72
2023-04-15T08:48:40.441Z,8.75
2023-04-15T08:49:40.432Z,8.81
2023-04-15T08:50:40.508Z,8.86
2023-04-15T08:51:40.540Z,8.92
2023-04-15T08:52:40.421Z,8.97
2023-04-15T08:53:40.420Z,9.00
2023-04-15T08:54:40.357Z,9.08
2023-04-15T08:55:40.344Z,9.13
2023-04-15T08:56:40.383Z,9.19
2023-04-15T08:57:40.342Z,9.24
2023-04-15T08:58:40.305Z,9.30
2023-04-15T08:59:40.285Z,9.34
2023-04-15T09:00:40.265Z,9.39
2023-04-15T09:01:40.353Z,9.44
2023-04-15T09:02:40.397Z,9.49
2023-04-15T09:03:40.453Z,9.52
2023-04-15T09:04:40.226Z,9.54
2023-04-15T09:05:40.220Z,9.55
2023-04-15T09:06:40.216Z,9.56
2023-04-15T09:07:40.215Z,9.56
2023-04-15T09:08:40.168Z,9.59
2023-04-15T09:09:40.596Z,9.62
2023-04-15T09:10:40.273Z,9.67
2023-04-15T09:11:44.934Z,9.69
2023-04-15T09:12:40.153Z,9.73
2023-04-15T09:13:40.117Z,9.80
2023-04-15T09:14:40.094Z,9.85
2023-04-15T09:15:40.082Z,9.90
2023-04-15T09:16:40.164Z,9.92
2023-04-15T09:17:40.096Z,9.99
2023-04-15T09:18:40.077Z,10.05
2023-04-15T09:19:40.019Z,10.06
2023-04-15T09:20:40.032Z,10.10
2023-04-15T09:21:40.076Z,10.13
2023-04-15T09:22:44.612Z,10.15
2023-04-15T09:23:46.586Z,10.17
2023-04-15T09:24:39.968Z,10.20
2023-04-15T09:25:39.934Z,10.24
2023-04-15T09:26:39.972Z,10.31
2023-04-15T09:27:39.918Z,10.43
2023-04-15T09:28:39.906Z,10.55
2023-04-15T09:29:39.917Z,10.62
2023-04-15T09:30:39.888Z,10.69
2023-04-15T09:31:39.861Z,10.75
2023-04-15T09:32:39.896Z,10.77
2023-04-15T09:33:39.819Z,10.77
2023-04-15T09:34:39.811Z,10.79
2023-04-15T09:35:39.788Z,10.83
2023-04-15T09:36:39.806Z,10.87
2023-04-15T09:37:39.773Z,10.89
2023-04-15T09:38:39.759Z,10.95
2023-04-15T09:39:39.738Z,10.98
2023-04-15T09:40:39.722Z,11.01
2023-04-15T09:41:39.736Z,11.02
2023-04-15T09:42:39.691Z,11.02
2023-04-15T09:43:39.707Z,11.02
2023-04-15T09:44:39.674Z,11.01
2023-04-15T09:45:39.672Z,11.04
2023-04-15T09:46:39.662Z,11.05
2023-04-15T09:47:39.638Z,11.05
2023-04-15T09:48:39.619Z,11.07
2023-04-15T09:49:39.664Z,11.07
2023-04-15T09:50:39.583Z,11.08
2023-04-15T09:51:39.603Z,11.12
2023-04-15T09:52:39.571Z,11.15
2023-04-15T09:53:39.554Z,11.16
2023-04-15T09:54:39.534Z,11.15
2023-04-15T09:55:39.554Z,11.15
2023-04-15T09:56:39.545Z,11.16
2023-04-15T09:57:39.519Z,11.19
2023-04-15T09:58:39.501Z,11.19
2023-04-15T09:59:39.485Z,11.20
2023-04-15T10:00:39.473Z,11.20
2023-04-15T10:01:39.488Z,11.22
2023-04-15T10:02:39.552Z,11.22
2023-04-15T10:03:39.507Z,11.27
2023-04-15T10:04:39.523Z,11.31
2023-04-15T10:05:39.499Z,11.34
2023-04-15T10:06:39.407Z,11.38
2023-04-15T10:07:39.391Z,11.38
2023-04-15T10:08:39.352Z,11.41
2023-04-15T10:09:39.345Z,11.43
2023-04-15T10:10:39.324Z,11.44
2023-04-15T10:11:39.334Z,11.44
2023-04-15T10:12:39.322Z,11.44
2023-04-15T10:13:39.303Z,11.43
2023-04-15T10:14:39.317Z,11.44
2023-04-15T10:15:39.282Z,11.41
2023-04-15T10:16:39.244Z,11.43
2023-04-15T10:17:39.262Z,11.41
2023-04-15T10:18:39.219Z,11.43
2023-04-15T10:19:39.205Z,11.41
2023-04-15T10:20:39.187Z,11.41
2023-04-15T10:21:39.180Z,11.40
2023-04-15T10:22:39.184Z,11.41
2023-04-15T10:23:39.184Z,11.41
2023-04-15T10:24:39.150Z,11.43
2023-04-15T10:25:39.119Z,11.44
2023-04-15T10:26:39.113Z,11.44
2023-04-15T10:27:39.116Z,11.45
2023-04-15T10:28:39.244Z,11.44
2023-04-15T10:29:39.156Z,11.45
2023-04-15T10:30:39.048Z,11.45
2023-04-15T10:31:39.311Z,11.44
2023-04-15T10:32:39.140Z,11.43
2023-04-15T10:33:39.050Z,11.44
2023-04-15T10:34:39.098Z,11.45
2023-04-15T10:35:39.000Z,11.44
2023-04-15T10:36:38.970Z,11.44
2023-04-15T10:37:38.959Z,11.45
2023-04-15T10:38:38.975Z,11.45
2023-04-15T10:39:38.937Z,11.45
2023-04-15T10:40:38.924Z,11.48
2023-04-15T10:41:38.894Z,11.48
2023-04-15T10:42:38.920Z,11.49
2023-04-15T10:43:38.863Z,11.53
2023-04-15T10:44:38.907Z,11.56
2023-04-15T10:45:38.860Z,11.56
2023-04-15T10:46:38.892Z,11.59
2023-04-15T10:47:38.891Z,11.60
2023-04-15T10:48:39.030Z,11.59
2023-04-15T10:49:38.801Z,11.62
2023-04-15T10:50:38.796Z,11.63
2023-04-15T10:51:38.763Z,11.65
2023-04-15T10:52:38.772Z,11.67
2023-04-15T10:53:38.989Z,11.67
2023-04-15T10:54:38.708Z,11.67
2023-04-15T10:55:38.714Z,11.70
2023-04-15T10:56:38.709Z,11.71
2023-04-15T10:57:38.720Z,11.73
2023-04-15T10:58:38.721Z,11.74
2023-04-15T10:59:38.675Z,11.73
2023-04-15T11:00:38.650Z,11.77
2023-04-15T11:01:38.714Z,11.76
2023-04-15T11:02:38.829Z,11.77
2023-04-15T11:03:39.087Z,11.77
2023-04-15T11:04:39.930Z,11.78
2023-04-15T11:05:38.569Z,11.85
2023-04-15T11:06:38.597Z,11.88
2023-04-15T11:07:38.572Z,11.88
2023-04-15T11:08:38.583Z,11.91
2023-04-15T11:09:38.560Z,11.96
2023-04-15T11:10:38.518Z,12.00
2023-04-15T11:11:38.505Z,12.03
2023-04-15T11:12:38.482Z,12.07
2023-04-15T11:13:38.478Z,12.10
2023-04-15T11:14:38.476Z,12.12
2023-04-15T11:15:38.448Z,12.15
2023-04-15T11:16:38.488Z,12.18
2023-04-15T11:17:38.516Z,12.23
2023-04-15T11:18:38.434Z,12.23
2023-04-15T11:19:38.393Z,12.28
2023-04-15T11:20:38.408Z,12.32
2023-04-15T11:21:38.358Z,12.35
2023-04-15T11:22:38.353Z,12.36
2023-04-15T11:23:38.344Z,12.35
2023-04-15T11:24:38.327Z,12.36
2023-04-15T11:25:38.307Z,12.33
2023-04-15T11:26:38.305Z,12.32
2023-04-15T11:27:38.282Z,12.36
2023-04-15T11:28:45.446Z,12.37
2023-04-15T11:29:38.257Z,12.36
2023-04-15T11:30:38.281Z,12.33
2023-04-15T11:31:38.249Z,12.32
2023-04-15T11:32:38.245Z,12.29
2023-04-15T11:33:38.316Z,12.30
2023-04-15T11:34:38.215Z,12.28
2023-04-15T11:35:38.177Z,12.25
2023-04-15T11:36:38.165Z,12.20
2023-04-15T11:37:38.156Z,12.20
2023-04-15T11:38:38.148Z,12.17
2023-04-15T11:39:38.119Z,12.17
2023-04-15T11:40:38.114Z,12.21
2023-04-15T11:41:38.090Z,12.25
2023-04-15T11:42:49.215Z,12.28
2023-04-15T11:43:39.083Z,12.33
2023-04-15T11:44:38.052Z,12.32
2023-04-15T11:45:38.073Z,12.28
2023-04-15T11:46:38.025Z,12.25
2023-04-15T11:47:38.025Z,12.20
2023-04-15T11:48:38.027Z,12.18
2023-04-15T11:49:37.999Z,12.14
2023-04-15T11:50:37.976Z,12.15
2023-04-15T11:51:37.959Z,12.15
2023-04-15T11:52:37.993Z,12.12
2023-04-15T11:53:37.952Z,12.12
2023-04-15T11:54:37.913Z,12.10
2023-04-15T11:55:37.907Z,12.12
2023-04-15T11:56:37.924Z,12.11
2023-04-15T11:57:37.891Z,12.11
2023-04-15T11:58:37.867Z,12.10
2023-04-15T11:59:44.976Z,12.12
2023-04-15T12:00:38.820Z,12.12
2023-04-15T12:01:37.830Z,12.12
2023-04-15T12:02:37.899Z,12.14
2023-04-15T12:03:38.026Z,12.12
2023-04-15T12:04:37.944Z,12.12
2023-04-15T12:05:37.774Z,12.11
2023-04-15T12:06:37.756Z,12.12
2023-04-15T12:07:37.725Z,12.14
2023-04-15T12:08:37.747Z,12.08
2023-04-15T12:09:37.728Z,12.08
2023-04-15T12:10:37.701Z,12.07
2023-04-15T12:11:37.700Z,12.08
2023-04-15T12:12:37.678Z,12.05
2023-04-15T12:13:37.685Z,12.08
2023-04-15T12:14:37.654Z,12.10
2023-04-15T12:15:37.676Z,12.10
2023-04-15T12:16:48.183Z,12.07
2023-04-15T12:17:51.474Z,12.02
2023-04-15T12:18:38.617Z,12.00
2023-04-15T12:19:37.652Z,12.00
2023-04-15T12:20:37.568Z,11.99
2023-04-15T12:21:37.543Z,11.99
2023-04-15T12:22:37.578Z,11.93
2023-04-15T12:23:37.700Z,11.89
2023-04-15T12:24:37.506Z,11.88
2023-04-15T12:25:37.498Z,11.86
2023-04-15T12:26:37.496Z,11.80
2023-04-15T12:27:37.471Z,11.78
2023-04-15T12:28:37.450Z,11.77
2023-04-15T12:29:37.477Z,11.71
2023-04-15T12:30:37.428Z,11.67
2023-04-15T12:31:37.470Z,11.63
2023-04-15T12:32:37.451Z,11.63
2023-04-15T12:33:37.399Z,11.63
2023-04-15T12:34:37.573Z,11.63
2023-04-15T12:35:37.423Z,11.63
2023-04-15T12:36:37.374Z,11.62
2023-04-15T12:37:37.350Z,11.63
2023-04-15T12:38:37.331Z,11.62
2023-04-15T12:39:37.372Z,11.56
2023-04-15T12:40:37.290Z,11.56
2023-04-15T12:41:37.289Z,11.52
2023-04-15T12:42:37.272Z,11.53
2023-04-15T12:43:37.263Z,11.52
2023-04-15T12:44:37.280Z,11.52
2023-04-15T12:45:37.261Z,11.53
2023-04-15T12:46:37.296Z,11.52
2023-04-15T12:47:37.233Z,11.52
2023-04-15T12:48:37.214Z,11.45
2023-04-15T12:49:37.190Z,11.41
2023-04-15T12:50:37.165Z,11.37
2023-04-15T12:51:37.176Z,11.27
2023-04-15T12:52:37.144Z,11.22
2023-04-15T12:53:37.188Z,11.16
2023-04-15T12:54:37.119Z,11.10
2023-04-15T12:55:37.185Z,11.02
2023-04-15T12:56:37.078Z,11.00
2023-04-15T12:57:37.080Z,10.97
2023-04-15T12:58:37.067Z,10.92
2023-04-15T12:59:37.072Z,10.94
2023-04-15T13:00:37.029Z,10.92
2023-04-15T13:01:37.040Z,10.90
2023-04-15T13:02:37.166Z,10.90
2023-04-15T13:03:37.198Z,10.92
2023-04-15T13:04:37.045Z,10.90
2023-04-15T13:05:36.983Z,10.90
2023-04-15T13:06:36.948Z,10.87
2023-04-15T13:07:36.935Z,10.83
2023-04-15T13:08:40.349Z,10.83
2023-04-15T13:09:37.952Z,10.82
2023-04-15T13:10:36.894Z,10.79